createdAt,value
2023-05-09T00:04:57.252Z,5.20
2023-05-09T00:10:01.360Z,4.65
2023-05-09T00:15:06.661Z,4.60
2023-05-09T00:20:12.557Z,3.90
2023-05-09T00:30:37.035Z,3.60
2023-05-09T00:35:41.011Z,3.47
2023-05-09T00:40:43.973Z,4.60
2023-05-09T00:45:48.074Z,3.42
2023-05-09T00:50:53.333Z,3.67
2023-05-09T00:55:58.096Z,3.83
2023-05-09T01:01:02.532Z,3.60
2023-05-09T01:06:20.576Z,3.45
2023-05-09T01:11:33.645Z,3.38
2023-05-09T01:16:51.259Z,3.63
2023-05-09T01:21:57.386Z,3.30
2023-05-09T01:27:21.545Z,3.50
2023-05-09T01:32:30.983Z,3.38
2023-05-09T01:37:37.100Z,3.40
2023-05-09T01:42:47.941Z,3.80
2023-05-09T01:47:51.651Z,3.78
2023-05-09T01:52:57.097Z,3.65
2023-05-09T01:58:01.462Z,3.67
2023-05-09T02:08:09.844Z,3.90
2023-05-09T02:13:12.849Z,3.80
2023-05-09T02:18:17.062Z,3.95
2023-05-09T02:23:20.790Z,3.70
2023-05-09T02:28:25.765Z,3.17
2023-05-09T02:33:31.100Z,3.10
2023-05-09T02:38:34.953Z,3.20
2023-05-09T02:48:41.546Z,3.00
2023-05-09T02:53:44.519Z,2.78
2023-05-09T02:58:51.497Z,2.83
2023-05-09T03:03:54.750Z,2.58
2023-05-09T03:08:58.139Z,3.00
2023-05-09T03:14:01.840Z,2.72
2023-05-09T03:19:04.818Z,2.80
2023-05-09T03:24:08.446Z,2.60
2023-05-09T03:29:11.719Z,2.28
2023-05-09T03:34:15.502Z,2.58
2023-05-09T03:39:20.550Z,2.58
2023-05-09T03:44:26.720Z,2.80
2023-05-09T03:49:29.785Z,2.70
2023-05-09T03:54:32.895Z,2.53
2023-05-09T03:59:36.706Z,2.92
2023-05-09T04:04:40.244Z,2.80
2023-05-09T04:09:43.820Z,3.25
2023-05-09T04:14:48.877Z,3.08
2023-05-09T04:19:53.212Z,3.60
2023-05-09T04:24:56.405Z,3.13
2023-05-09T04:29:59.799Z,3.50
2023-05-09T04:35:04.182Z,3.15
2023-05-09T04:40:13.501Z,3.05
2023-05-09T04:45:23.717Z,3.88
2023-05-09T04:50:27.307Z,4.15
2023-05-09T04:55:30.223Z,3.80
2023-05-09T05:00:33.517Z,2.90
2023-05-09T05:05:37.595Z,2.60
2023-05-09T05:10:41.620Z,3.10
2023-05-09T05:15:47.757Z,2.40
2023-05-09T05:20:50.989Z,2.17
2023-05-09T05:25:54.234Z,2.10
2023-05-09T05:30:57.227Z,2.40
2023-05-09T05:36:00.211Z,2.20
2023-05-09T05:41:03.686Z,1.88
2023-05-09T05:46:06.994Z,1.20
2023-05-09T05:51:11.320Z,1.50
2023-05-09T05:56:16.456Z,1.70
2023-05-09T06:01:19.675Z,1.42
2023-05-09T06:06:23.392Z,1.60
2023-05-09T06:11:26.434Z,1.60
2023-05-09T06:16:29.778Z,1.70
2023-05-09T06:21:34.407Z,1.65
2023-05-09T06:26:37.550Z,1.45
2023-05-09T06:31:41.076Z,2.00
2023-05-09T06:36:44.114Z,1.42
2023-05-09T06:41:46.968Z,1.60
2023-05-09T06:46:59.479Z,1.67
2023-05-09T06:52:02.492Z,1.23
2023-05-09T06:57:05.515Z,1.60
2023-05-09T07:02:08.957Z,1.23
2023-05-09T07:07:12.681Z,1.40
2023-05-09T07:12:15.671Z,1.38
2023-05-09T07:17:22.711Z,1.70
2023-05-09T07:22:26.211Z,1.90
2023-05-09T07:27:29.265Z,1.55
2023-05-09T07:32:32.341Z,1.63
2023-05-09T07:37:35.321Z,1.58
2023-05-09T07:42:38.676Z,1.30
2023-05-09T07:47:41.781Z,1.67
2023-05-09T07:52:44.953Z,1.60
2023-05-09T07:57:47.989Z,1.60
2023-05-09T08:02:52.064Z,1.80
2023-05-09T08:07:55.303Z,1.40
2023-05-09T08:12:58.475Z,1.50
2023-05-09T08:18:02.020Z,1.58
2023-05-09T08:28:07.868Z,1.30
2023-05-09T08:33:10.983Z,1.55
2023-05-09T08:38:14.079Z,1.73
2023-05-09T08:43:20.208Z,1.40
2023-05-09T08:48:23.453Z,1.75
2023-05-09T08:53:26.949Z,1.80
2023-05-09T09:03:34.271Z,1.55
2023-05-09T09:08:37.482Z,1.50
2023-05-09T09:13:42.121Z,1.42
2023-05-09T09:18:46.390Z,1.70
2023-05-09T09:23:50.297Z,1.60
2023-05-09T09:28:54.607Z,1.40
2023-05-09T09:34:02.323Z,1.65
2023-05-09T09:39:06.153Z,1.58
2023-05-09T09:44:14.222Z,1.80
2023-05-09T09:49:22.977Z,1.50
2023-05-09T09:54:29.170Z,1.77
2023-05-09T09:59:32.257Z,1.55
2023-05-09T10:04:37.551Z,1.80
2023-05-09T10:09:41.373Z,1.85
2023-05-09T10:14:45.266Z,2.20
2023-05-09T10:19:51.308Z,1.90
2023-05-09T10:25:06.848Z,1.70
2023-05-09T10:30:17.221Z,2.10
2023-05-09T10:35:28.314Z,1.70
2023-05-09T10:40:32.637Z,1.70
2023-05-09T10:45:36.280Z,3.40
2023-05-09T10:50:40.607Z,2.30
2023-05-09T10:55:51.421Z,1.60
2023-05-09T11:00:59.570Z,1.75
2023-05-09T11:06:02.541Z,1.88
2023-05-09T11:11:26.951Z,1.85
2023-05-09T11:16:30.569Z,2.30
2023-05-09T11:21:37.006Z,1.80
2023-05-09T11:26:40.383Z,1.70
2023-05-09T11:32:06.881Z,1.50
2023-05-09T11:37:11.656Z,1.80
2023-05-09T11:42:14.866Z,1.88
2023-05-09T11:47:18.469Z,2.60
2023-05-09T11:52:23.099Z,1.73
2023-05-09T11:57:26.303Z,1.63
2023-05-09T12:07:32.427Z,1.80
2023-05-09T12:12:36.610Z,1.80
2023-05-09T12:17:40.704Z,1.80
2023-05-09T12:22:44.607Z,1.60
2023-05-09T12:27:47.593Z,1.77
2023-05-09T12:32:50.814Z,2.10
2023-05-09T12:37:59.243Z,2.22
2023-05-09T12:43:03.206Z,1.92
2023-05-09T12:48:06.636Z,1.73
2023-05-09T12:53:09.532Z,1.80
2023-05-09T12:58:14.973Z,1.85
2023-05-09T13:03:37.907Z,2.00
2023-05-09T13:08:41.910Z,1.70
2023-05-09T13:13:45.166Z,1.88
2023-05-09T13:18:48.483Z,1.95
2023-05-09T13:23:52.352Z,1.80
2023-05-09T13:28:56.195Z,1.92
2023-05-09T13:33:59.092Z,1.70
2023-05-09T13:39:02.111Z,1.90
2023-05-09T13:44:27.032Z,1.63
2023-05-09T13:49:30.017Z,2.00
2023-05-09T13:59:41.170Z,1.90
2023-05-09T14:04:44.249Z,1.70
2023-05-09T14:14:55.093Z,1.98
2023-05-09T14:19:58.284Z,1.88
2023-05-09T14:25:04.552Z,1.80
2023-05-09T14:30:08.956Z,1.70
2023-05-09T14:35:11.961Z,1.75
2023-05-09T14:40:33.792Z,2.33
2023-05-09T14:45:36.875Z,1.83
2023-05-09T14:55:42.651Z,2.28
2023-05-09T15:00:46.113Z,2.65
2023-05-09T15:05:49.772Z,2.40
2023-05-09T15:10:52.885Z,2.00
2023-05-09T15:20:59.236Z,2.35
2023-05-09T15:26:02.771Z,2.40
2023-05-09T15:31:07.349Z,1.77
2023-05-09T15:36:10.338Z,1.75
2023-05-09T15:41:13.244Z,1.73
2023-05-09T15:46:35.119Z,1.77
2023-05-09T15:51:38.182Z,2.25
2023-05-09T15:56:59.730Z,2.33
2023-05-09T16:02:03.169Z,2.35
2023-05-09T16:07:06.366Z,3.20
2023-05-09T16:12:09.657Z,3.10
2023-05-09T16:22:15.649Z,3.63
2023-05-09T16:27:18.917Z,4.15
2023-05-09T16:32:22.021Z,11.05
2023-05-09T16:37:25.042Z,4.63
2023-05-09T16:42:28.689Z,4.80
2023-05-09T16:47:51.366Z,5.72
2023-05-09T16:52:55.770Z,5.63
2023-05-09T16:57:58.840Z,5.47
2023-05-09T17:03:02.032Z,5.45
2023-05-09T17:08:05.669Z,4.53
2023-05-09T17:18:38.216Z,2.70
2023-05-09T17:23:41.648Z,3.28
2023-05-09T17:28:45.117Z,2.90
2023-05-09T17:33:47.998Z,3.33
2023-05-09T17:38:51.153Z,2.90
2023-05-09T17:43:56.657Z,3.03
2023-05-09T17:48:59.691Z,2.50
2023-05-09T17:54:03.376Z,2.60
2023-05-09T17:59:06.667Z,2.70
2023-05-09T18:04:09.875Z,2.45
2023-05-09T18:09:12.995Z,2.65
2023-05-09T18:14:16.874Z,2.40
2023-05-09T18:19:19.948Z,2.85
2023-05-09T18:24:23.481Z,3.35
2023-05-09T18:29:26.626Z,2.20
2023-05-09T18:34:30.583Z,3.08
2023-05-09T18:39:33.593Z,3.15
2023-05-09T18:44:37.592Z,3.17
2023-05-09T18:49:40.864Z,3.17
2023-05-09T18:54:43.857Z,3.90
2023-05-09T18:59:47.054Z,3.65
2023-05-09T19:04:51.698Z,2.75
2023-05-09T19:09:54.802Z,2.80
2023-05-09T19:14:59.520Z,3.50
2023-05-09T19:20:02.934Z,3.03
2023-05-09T19:25:08.113Z,3.70
2023-05-09T19:30:13.186Z,3.38
2023-05-09T19:35:16.449Z,3.03
2023-05-09T19:40:19.602Z,3.90
2023-05-09T19:45:22.776Z,3.28
2023-05-09T19:50:25.766Z,3.10
2023-05-09T19:55:28.891Z,5.85
2023-05-09T20:00:32.523Z,3.67
2023-05-09T20:10:47.439Z,2.80
2023-05-09T20:15:50.607Z,2.90
2023-05-09T20:20:54.974Z,3.33
2023-05-09T20:25:58.067Z,2.60
2023-05-09T20:31:01.140Z,2.20
2023-05-09T20:36:06.729Z,2.40
2023-05-09T20:41:09.657Z,2.50
2023-05-09T20:46:12.992Z,2.15
2023-05-09T20:51:16.200Z,2.20
2023-05-09T20:56:19.798Z,2.10
2023-05-09T21:01:22.713Z,2.13
2023-05-09T21:06:26.009Z,2.83
2023-05-09T21:11:28.930Z,3.40
2023-05-09T21:16:32.179Z,2.90
2023-05-09T21:21:35.219Z,2.00
2023-05-09T21:26:38.244Z,3.35
2023-05-09T21:31:41.293Z,2.78
2023-05-09T21:36:44.362Z,2.03
2023-05-09T21:41:47.497Z,3.03
2023-05-09T21:47:09.335Z,3.70
2023-05-09T21:52:12.487Z,4.32
2023-05-09T21:57:15.363Z,3.63
2023-05-09T22:02:18.743Z,3.30
2023-05-09T22:07:21.933Z,2.17
2023-05-09T22:12:24.875Z,2.92
2023-05-09T22:17:28.082Z,2.28
2023-05-09T22:22:31.954Z,2.92
2023-05-09T22:32:37.741Z,2.30
2023-05-09T22:37:40.712Z,3.00
2023-05-09T22:42:43.617Z,2.10
2023-05-09T22:47:46.598Z,1.80
2023-05-09T22:52:49.578Z,2.20
2023-05-09T22:57:52.446Z,2.00
2023-05-09T23:02:55.766Z,1.92
2023-05-09T23:07:58.926Z,1.88
2023-05-09T23:13:01.998Z,1.60
2023-05-09T23:18:05.488Z,1.80
2023-05-09T23:23:08.500Z,1.90
2023-05-09T23:28:11.473Z,1.85
2023-05-09T23:33:14.494Z,1.90
2023-05-09T23:38:17.660Z,1.83
2023-05-09T23:43:20.796Z,1.90
2023-05-09T23:48:24.125Z,1.90
2023-05-09T23:53:27.260Z,2.47
2023-05-09T23:58:30.345Z,2.03
